Time;durP1;ratioP1;P1;durP2;ratioP2;P2;SDS_P1;SDS_P2;PMS_P1;PMS_P2;Temp;Humidity;BMP_temperature;BMP_pressure;BME280_temperature;BME280_humidity;BME280_pressure;Samples;Min_cycle;Max_cycle;Signal;HPM_P1;HPM_P2
2023/05/28 00:00:03;;;;;;;7.30;3.50;;;;;;;17.53;46.76;100681.52;104367;1263;61850;-55
2023/05/28 00:02:39;;;;;;;10.50;3.80;;;;;;;17.50;46.93;100681.71;107538;1260;60480;-55
2023/05/28 00:05:07;;;;;;;10.90;4.40;;;;;;;17.46;46.91;100683.95;104354;1265;66169;-55
2023/05/28 00:07:35;;;;;;;7.90;3.00;;;;;;;17.44;47.14;100684.71;108728;1259;60112;-57
2023/05/28 00:10:03;;;;;;;6.70;3.50;;;;;;;17.42;47.23;100686.20;104948;1258;63747;-56
2023/05/28 00:12:30;;;;;;;8.40;3.40;;;;;;;17.40;47.54;100687.85;104477;1260;60585;-55
2023/05/28 00:14:59;;;;;;;6.70;3.20;;;;;;;17.37;47.38;100686.85;104383;1265;60510;-56
2023/05/28 00:17:27;;;;;;;12.50;3.70;;;;;;;17.34;47.23;100689.86;104354;1263;64944;-56
2023/05/28 00:19:55;;;;;;;6.00;3.10;;;;;;;17.31;47.42;100696.42;106967;1259;61874;-54
2023/05/28 00:22:23;;;;;;;8.10;3.30;;;;;;;17.27;47.55;100702.66;104424;1259;66878;-55
2023/05/28 00:24:51;;;;;;;9.60;3.60;;;;;;;17.23;47.44;100703.73;104616;1265;60527;-54
2023/05/28 00:27:19;;;;;;;9.10;3.40;;;;;;;17.20;47.53;100705.34;104549;1262;60383;-55
2023/05/28 00:29:46;;;;;;;9.90;4.00;;;;;;;17.16;47.93;100705.20;104348;1259;63788;-52
2023/05/28 00:32:14;;;;;;;9.90;4.10;;;;;;;17.12;47.95;100703.25;104382;1260;62515;-53
2023/05/28 00:34:41;;;;;;;10.00;3.70;;;;;;;17.09;47.78;100702.48;104412;1265;62499;-52
2023/05/28 00:37:09;;;;;;;9.80;3.90;;;;;;;17.05;47.87;100701.32;104373;1263;60457;-56
2023/05/28 00:39:36;;;;;;;13.30;4.10;;;;;;;17.01;47.97;100698.07;104434;1259;60613;-57
2023/05/28 00:42:10;;;;;;;8.70;3.10;;;;;;;16.97;47.95;100692.63;104409;1260;63792;-55
2023/05/28 00:44:39;;;;;;;8.00;3.50;;;;;;;16.94;48.14;100693.64;108684;1259;61447;-54
2023/05/28 00:47:07;;;;;;;9.10;3.70;;;;;;;16.90;48.28;100694.48;104874;1259;62458;-56
2023/05/28 00:49:34;;;;;;;9.10;3.80;;;;;;;16.87;48.22;100698.90;105902;1264;60670;-53
2023/05/28 00:52:02;;;;;;;10.30;3.80;;;;;;;16.83;48.32;100700.36;104546;1259;60502;-55
2023/05/28 00:54:30;;;;;;;8.90;4.00;;;;;;;16.80;48.46;100704.38;105100;1265;65479;-54
2023/05/28 00:56:57;;;;;;;11.60;4.20;;;;;;;16.77;48.80;100706.78;104391;1259;70683;-55
2023/05/28 00:59:25;;;;;;;8.20;4.30;;;;;;;16.73;48.91;100701.90;106798;1265;62542;-55
2023/05/28 01:01:53;;;;;;;9.80;3.60;;;;;;;16.67;49.09;100706.94;104400;1265;60340;-54
2023/05/28 01:04:28;;;;;;;11.40;3.60;;;;;;;16.63;49.24;100709.08;104439;1265;60871;-56
2023/05/28 01:06:56;;;;;;;8.50;3.80;;;;;;;16.64;49.13;100713.56;108604;1262;75874;-55
2023/05/28 01:09:24;;;;;;;10.10;3.40;;;;;;;16.64;49.12;100714.20;108580;1259;61470;-55
2023/05/28 01:11:52;;;;;;;9.30;4.00;;;;;;;16.61;49.01;100714.41;108489;1259;62478;-54
2023/05/28 01:14:20;;;;;;;9.00;3.60;;;;;;;16.59;48.95;100716.21;106338;1260;60584;-53
2023/05/28 01:16:51;;;;;;;8.70;4.00;;;;;;;16.57;48.84;100716.80;107004;1259;60549;-54
2023/05/28 01:19:21;;;;;;;8.70;3.70;;;;;;;16.54;48.76;100719.70;108539;1259;63758;-53
2023/05/28 01:21:50;;;;;;;8.30;3.70;;;;;;;16.51;48.62;100720.20;104439;1265;61551;-55
2023/05/28 01:24:18;;;;;;;10.30;3.70;;;;;;;16.46;48.71;100722.19;105251;1265;62543;-54
2023/05/28 01:26:45;;;;;;;9.40;3.80;;;;;;;16.39;48.97;100725.30;104351;1265;60908;-54
2023/05/28 01:29:14;;;;;;;10.40;3.70;;;;;;;16.34;48.96;100727.02;104700;1263;60594;-54
2023/05/28 01:31:43;;;;;;;12.30;3.70;;;;;;;16.29;48.88;100727.70;104866;1260;65048;-54
2023/05/28 01:34:11;;;;;;;8.80;3.50;;;;;;;16.25;49.06;100729.23;105538;1259;61413;-53
2023/05/28 01:36:56;;;;;;;12.10;3.70;;;;;;;16.19;49.06;100728.36;104533;1264;63684;-54
2023/05/28 01:39:25;;;;;;;9.10;3.80;;;;;;;16.14;49.24;100728.85;105239;1266;60825;-54
2023/05/28 01:41:53;;;;;;;9.00;3.50;;;;;;;16.10;49.37;100731.31;104344;1261;60554;-52
2023/05/28 01:44:21;;;;;;;13.10;4.40;;;;;;;16.07;49.53;100736.45;104370;1259;66016;-52
2023/05/28 01:46:49;;;;;;;8.30;3.30;;;;;;;16.04;49.64;100736.58;108648;1265;61389;-54
2023/05/28 01:49:17;;;;;;;11.80;3.70;;;;;;;16.01;49.72;100733.66;108603;1260;64334;-52
2023/05/28 01:51:44;;;;;;;8.30;3.50;;;;;;;15.99;49.70;100736.96;107118;1265;60558;-53
2023/05/28 01:54:12;;;;;;;9.40;3.90;;;;;;;15.99;49.60;100743.56;104418;1259;60547;-54
2023/05/28 01:56:39;;;;;;;12.80;3.80;;;;;;;15.97;49.58;100748.89;104415;1261;63632;-54
2023/05/28 01:59:07;;;;;;;9.70;3.80;;;;;;;15.95;49.53;100746.72;105799;1262;61499;-54
2023/05/28 02:01:36;;;;;;;7.60;3.60;;;;;;;15.93;49.53;100748.88;105013;1263;63721;-56
2023/05/28 02:04:05;;;;;;;8.40;3.80;;;;;;;15.91;49.54;100751.58;104461;1265;60566;-52
2023/05/28 02:06:33;;;;;;;11.30;3.80;;;;;;;15.88;49.60;100746.60;104710;1264;60450;-53
2023/05/28 02:09:01;;;;;;;7.50;4.30;;;;;;;15.83;49.59;100748.11;106860;1263;64919;-56
2023/05/28 02:11:28;;;;;;;9.00;4.10;;;;;;;15.79;49.91;100750.21;104445;1262;61391;-54
2023/05/28 02:13:56;;;;;;;13.40;4.80;;;;;;;15.75;49.80;100746.92;104261;1262;62822;-56
2023/05/28 02:16:25;;;;;;;10.90;4.50;;;;;;;15.70;49.91;100750.16;104369;1261;61647;-54
2023/05/28 02:18:54;;;;;;;11.00;4.30;;;;;;;15.66;50.02;100746.90;104470;1263;60518;-53
2023/05/28 02:21:23;;;;;;;10.50;4.50;;;;;;;15.62;50.08;100750.80;107052;1263;64974;-55
2023/05/28 02:23:50;;;;;;;11.80;4.90;;;;;;;15.60;50.12;100756.84;104576;1262;60358;-55
2023/05/28 02:26:18;;;;;;;7.80;4.10;;;;;;;15.58;50.31;100759.45;107042;1263;62653;-55
2023/05/28 02:28:45;;;;;;;10.20;4.20;;;;;;;15.58;50.47;100755.79;104377;1264;60594;-55
2023/05/28 02:31:14;;;;;;;7.90;4.00;;;;;;;15.57;50.36;100755.70;104686;1263;60454;-56
2023/05/28 02:33:44;;;;;;;11.00;4.90;;;;;;;15.56;50.12;100753.66;108242;1262;64953;-56
2023/05/28 02:36:13;;;;;;;8.80;3.90;;;;;;;15.56;50.24;100757.94;106441;1263;61384;-55
2023/05/28 02:38:41;;;;;;;9.20;3.90;;;;;;;15.55;50.30;100757.94;104232;1265;64187;-55
2023/05/28 02:41:09;;;;;;;8.50;3.70;;;;;;;15.54;50.19;100752.77;104487;1259;61360;-55
2023/05/28 02:43:39;;;;;;;10.70;3.80;;;;;;;15.53;50.14;100755.88;108607;1259;58072;-55
2023/05/28 02:46:07;;;;;;;7.90;3.20;;;;;;;15.52;49.89;100754.25;105813;1263;64863;-55
2023/05/28 02:48:35;;;;;;;7.50;3.50;;;;;;;15.51;49.77;100759.27;104644;1265;60444;-54
2023/05/28 02:51:03;;;;;;;8.80;3.50;;;;;;;15.50;50.09;100759.00;104316;1263;64165;-54
2023/05/28 02:53:33;;;;;;;7.80;3.30;;;;;;;15.48;50.01;100760.97;104466;1261;60533;-54
2023/05/28 02:56:01;;;;;;;8.00;3.30;;;;;;;15.47;50.09;100759.27;104455;1265;60509;-56
2023/05/28 02:58:30;;;;;;;12.20;3.60;;;;;;;15.47;50.10;100755.61;107610;1263;63637;-56
2023/05/28 03:00:58;;;;;;;9.80;3.40;;;;;;;15.46;49.85;100751.42;105226;1264;60121;-56
2023/05/28 03:03:25;;;;;;;6.20;2.90;;;;;;;15.45;49.74;100752.61;104447;1264;63664;-56
2023/05/28 03:05:53;;;;;;;7.50;3.00;;;;;;;15.45;49.72;100756.84;104431;1263;60511;-55
2023/05/28 03:08:22;;;;;;;10.70;3.50;;;;;;;15.43;49.76;100762.48;106100;1263;60540;-56
2023/05/28 03:10:49;;;;;;;7.40;2.70;;;;;;;15.42;49.82;100763.14;104582;1264;64861;-56
2023/05/28 03:13:17;;;;;;;15.20;3.20;;;;;;;15.41;49.81;100769.22;104815;1264;61472;-57
2023/05/28 03:15:44;;;;;;;8.10;3.00;;;;;;;15.39;50.10;100769.57;104430;1263;62449;-55
2023/05/28 03:18:13;;;;;;;6.40;3.00;;;;;;;15.39;49.93;100777.55;104500;1259;60570;-55
2023/05/28 03:20:41;;;;;;;6.20;2.70;;;;;;;15.38;49.96;100780.30;105562;1264;60549;-56
2023/05/28 03:23:08;;;;;;;9.60;3.40;;;;;;;15.39;50.05;100784.39;104378;1264;63855;-54
2023/05/28 03:25:48;;;;;;;10.80;3.20;;;;;;;15.41;50.26;100787.55;104525;1262;62465;-53
2023/05/28 03:28:16;;;;;;;6.50;2.90;;;;;;;15.41;50.06;100783.13;104403;1265;63694;-53
2023/05/28 03:30:57;;;;;;;7.50;3.30;;;;;;;15.40;49.44;100781.85;104375;1263;60671;-57
2023/05/28 03:33:25;;;;;;;9.50;3.20;;;;;;;15.38;50.01;100788.19;107034;1263;58314;-54
2023/05/28 03:35:53;;;;;;;8.00;3.00;;;;;;;15.40;49.78;100787.39;104312;1267;64995;-55
2023/05/28 03:38:21;;;;;;;5.60;3.20;;;;;;;15.42;49.37;100789.12;106281;1260;69156;-55
2023/05/28 03:40:49;;;;;;;7.70;3.10;;;;;;;15.44;49.38;100788.79;108535;1259;62582;-56
2023/05/28 03:43:16;;;;;;;8.90;3.20;;;;;;;15.45;49.01;100787.44;106239;1261;60519;-55
2023/05/28 03:45:44;;;;;;;8.90;2.70;;;;;;;15.47;49.56;100787.46;104269;1264;60572;-54
2023/05/28 03:48:12;;;;;;;8.10;2.80;;;;;;;15.48;49.30;100782.87;104345;1264;63686;-54
2023/05/28 03:50:39;;;;;;;8.90;3.00;;;;;;;15.51;48.98;100785.96;106687;1263;61380;-56
2023/05/28 03:53:07;;;;;;;6.40;2.60;;;;;;;15.54;48.81;100790.30;106617;1265;62582;-55
2023/05/28 03:55:35;;;;;;;7.00;2.90;;;;;;;15.58;49.24;100792.43;104409;1263;60655;-54
2023/05/28 03:58:03;;;;;;;5.80;2.40;;;;;;;15.61;48.99;100794.55;105082;1259;60451;-55
2023/05/28 04:00:31;;;;;;;7.90;2.50;;;;;;;15.64;48.66;100792.01;106820;1262;63622;-55
2023/05/28 04:02:59;;;;;;;10.60;3.20;;;;;;;15.64;48.25;100790.56;104383;1266;61649;-55
2023/05/28 04:05:27;;;;;;;7.10;2.80;;;;;;;15.63;48.51;100795.95;104540;1262;63764;-54
2023/05/28 04:07:54;;;;;;;8.30;2.70;;;;;;;15.62;48.60;100795.73;104378;1264;60427;-54
2023/05/28 04:10:22;;;;;;;7.70;3.10;;;;;;;15.63;48.73;100798.65;106161;1261;60576;-53
2023/05/28 04:12:50;;;;;;;9.10;2.90;;;;;;;15.63;48.32;100796.31;104664;1261;64928;-54
2023/05/28 04:15:19;;;;;;;7.70;2.80;;;;;;;15.64;48.43;100801.86;104487;1264;61349;-54
2023/05/28 04:17:46;;;;;;;9.00;2.60;;;;;;;15.65;48.48;100802.87;104270;1264;64283;-54
2023/05/28 04:20:14;;;;;;;6.80;2.80;;;;;;;15.65;48.19;100799.86;108624;1259;58223;-55
2023/05/28 04:22:42;;;;;;;7.50;2.70;;;;;;;15.65;47.90;100804.80;104734;1264;58987;-54
2023/05/28 04:25:09;;;;;;;7.80;3.00;;;;;;;15.65;48.50;100806.73;104585;1260;63626;-54
2023/05/28 04:27:37;;;;;;;5.90;2.60;;;;;;;15.65;48.11;100805.83;104826;1261;61812;-54
2023/05/28 04:30:06;;;;;;;7.80;2.70;;;;;;;15.66;48.00;100809.27;105741;1263;62456;-53
2023/05/28 04:32:33;;;;;;;9.40;2.90;;;;;;;15.68;48.55;100811.76;106754;1260;61161;-53
2023/05/28 04:35:03;;;;;;;7.50;2.60;;;;;;;15.71;48.25;100812.66;104342;1258;60608;-54
2023/05/28 04:37:32;;;;;;;6.30;2.50;;;;;;;15.73;47.94;100814.60;104520;1263;65417;-53
2023/05/28 04:40:01;;;;;;;11.70;3.10;;;;;;;15.74;47.65;100816.64;108533;1261;62504;-54
2023/05/28 04:42:28;;;;;;;7.50;2.80;;;;;;;15.75;47.94;100816.91;108623;1259;63856;-54
2023/05/28 04:44:58;;;;;;;6.30;2.70;;;;;;;15.80;48.33;100814.42;108631;1259;59958;-54
2023/05/28 04:47:25;;;;;;;6.70;2.50;;;;;;;15.86;47.77;100809.23;108581;1260;59173;-54
2023/05/28 04:49:53;;;;;;;6.30;2.50;;;;;;;15.90;47.56;100819.05;107926;1260;63680;-53
2023/05/28 04:52:23;;;;;;;8.60;2.90;;;;;;;15.96;47.47;100822.95;104346;1264;62275;-54
2023/05/28 04:54:51;;;;;;;7.40;2.70;;;;;;;16.01;47.59;100821.16;104556;1261;64604;-54
2023/05/28 04:57:19;;;;;;;5.70;2.50;;;;;;;16.08;47.78;100821.77;104317;1260;60616;-54
2023/05/28 04:59:48;;;;;;;9.40;2.70;;;;;;;16.14;47.21;100824.92;104260;1263;61143;-53
2023/05/28 05:02:18;;;;;;;5.80;3.00;;;;;;;16.16;46.75;100824.39;104501;1260;65486;-56
2023/05/28 05:04:46;;;;;;;7.30;2.80;;;;;;;16.17;47.20;100821.81;104412;1263;62003;-56
2023/05/28 05:07:15;;;;;;;8.60;2.70;;;;;;;16.21;47.17;100822.48;104280;1260;63697;-55
2023/05/28 05:09:42;;;;;;;6.00;2.50;;;;;;;16.26;47.41;100821.45;104494;1264;60483;-57
2023/05/28 05:12:10;;;;;;;8.50;2.50;;;;;;;16.32;47.49;100823.23;108793;1257;58407;-54
2023/05/28 05:14:37;;;;;;;7.50;2.80;;;;;;;16.40;47.84;100826.70;107687;1260;64021;-56
2023/05/28 05:17:08;;;;;;;6.00;2.50;;;;;;;16.47;47.24;100820.53;104359;1261;60583;-55
2023/05/28 05:19:36;;;;;;;5.60;2.50;;;;;;;16.52;46.90;100823.02;104350;1261;62498;-57
2023/05/28 05:22:04;;;;;;;8.20;2.50;;;;;;;16.55;46.84;100825.20;105616;1260;60506;-51
2023/05/28 05:24:32;;;;;;;6.90;2.40;;;;;;;16.60;46.95;100827.00;107594;1259;60891;-53
2023/05/28 05:27:01;;;;;;;7.70;2.30;;;;;;;16.67;46.55;100832.55;108476;1260;63732;-55
2023/05/28 05:29:29;;;;;;;9.70;2.60;;;;;;;16.74;46.88;100830.92;104950;1259;60570;-54
2023/05/28 05:31:57;;;;;;;9.30;2.40;;;;;;;16.81;46.46;100827.94;104626;1261;63760;-53
2023/05/28 05:34:25;;;;;;;8.90;2.40;;;;;;;16.88;46.33;100832.38;104359;1260;61213;-54
2023/05/28 05:37:11;;;;;;;;;;;;;;;16.96;45.90;100835.02;104337;1258;60748;-55
2023/05/28 05:40:09;;;;;;;7.10;2.40;;;;;;;17.02;45.81;100829.94;104260;1261;74665;-54
2023/05/28 05:42:59;;;;;;;10.50;2.80;;;;;;;17.07;45.34;100833.73;104420;1260;61386;-57
2023/05/28 05:45:27;;;;;;;5.60;2.10;;;;;;;17.10;44.61;100831.63;104291;1263;63770;-53
2023/05/28 05:47:55;;;;;;;8.30;2.20;;;;;;;17.13;44.50;100831.52;106243;1259;60871;-54
2023/05/28 05:50:23;;;;;;;6.00;2.10;;;;;;;17.16;44.85;100827.48;106200;1261;60420;-56
2023/05/28 05:52:51;;;;;;;5.10;2.00;;;;;;;17.21;45.34;100825.41;104269;1267;63923;-55
2023/05/28 05:55:19;;;;;;;5.60;2.20;;;;;;;17.28;45.79;100822.27;104520;1261;61417;-54
2023/05/28 05:57:49;;;;;;;5.30;2.30;;;;;;;17.36;45.45;100830.67;107175;1261;63734;-55
2023/05/28 06:00:17;;;;;;;7.50;2.70;;;;;;;17.42;45.39;100835.86;106433;1259;59221;-55
2023/05/28 06:02:48;;;;;;;7.80;2.80;;;;;;;17.48;44.57;100835.64;104454;1263;60394;-56
2023/05/28 06:05:36;;;;;;;9.40;2.90;;;;;;;17.53;44.54;100836.52;104085;1260;63649;-56
2023/05/28 06:08:14;;;;;;;5.80;2.70;;;;;;;17.59;44.90;100839.13;104274;1257;60347;-57
2023/05/28 06:10:54;;;;;;;6.20;2.50;;;;;;;17.66;44.38;100834.87;104403;1260;63772;-53
2023/05/28 06:13:22;;;;;;;9.70;2.90;;;;;;;17.70;43.72;100834.30;108488;1259;59098;-53
2023/05/28 06:15:49;;;;;;;5.90;2.20;;;;;;;17.73;43.94;100835.02;108329;1259;234270;-54
2023/05/28 06:29:22;;;;;;;9.00;2.60;;;;;;;17.92;43.40;100834.80;102557;1283;604523;-55
2023/05/28 06:31:50;;;;;;;7.70;2.30;;;;;;;18.39;41.64;100835.09;103892;1267;126864;-54
2023/05/28 06:34:18;;;;;;;5.60;2.20;;;;;;;18.38;41.42;100832.20;104020;1266;59253;-55
2023/05/28 06:40:39;;;;;;;6.10;2.30;;;;;;;18.36;42.71;100832.58;103946;1273;61556;-54
2023/05/28 06:43:09;;;;;;;6.90;2.50;;;;;;;18.36;41.72;100828.48;103060;1274;63778;-55
2023/05/28 06:46:01;;;;;;;10.30;2.60;;;;;;;18.33;42.47;100826.41;103607;1280;60184;-54
2023/05/28 06:48:28;;;;;;;6.20;2.60;;;;;;;18.33;42.03;100829.98;103687;1269;60797;-53
2023/05/28 06:50:57;;;;;;;7.80;2.50;;;;;;;18.34;41.86;100827.45;103800;1275;62036;-54
2023/05/28 06:53:25;;;;;;;8.60;2.80;;;;;;;18.37;41.77;100831.59;104742;1279;61361;-54
2023/05/28 06:55:53;;;;;;;6.30;2.40;;;;;;;18.39;41.66;100834.20;103661;1276;63835;-54
2023/05/28 06:58:39;;;;;;;4.90;2.00;;;;;;;18.42;41.71;100829.08;105033;1275;59621;-54
2023/05/28 07:01:07;;;;;;;7.00;2.40;;;;;;;18.46;42.09;100827.05;103738;1276;59929;-53
2023/05/28 07:03:47;;;;;;;4.80;1.90;;;;;;;18.51;41.81;100827.23;103711;1276;64110;-58
2023/05/28 07:06:17;;;;;;;6.80;2.10;;;;;;;18.56;42.01;100824.20;103547;1277;61508;-55
2023/05/28 07:08:45;;;;;;;7.10;2.20;;;;;;;18.63;42.02;100820.88;103830;1267;64749;-54
2023/05/28 07:11:13;;;;;;;7.30;1.90;;;;;;;18.69;42.10;100818.09;104870;1271;59500;-54
2023/05/28 07:13:45;;;;;;;5.60;2.40;;;;;;;18.74;41.53;100820.15;103888;1274;59658;-54
2023/05/28 07:16:12;;;;;;;4.70;2.20;;;;;;;18.78;41.01;100818.73;104574;1269;66702;-61
2023/05/28 07:18:40;;;;;;;6.50;2.30;;;;;;;18.79;40.75;100816.33;105566;1271;60286;-61
2023/05/28 07:21:08;;;;;;;8.40;2.20;;;;;;;18.80;41.32;100814.39;105523;1273;62428;-62
2023/05/28 07:23:41;;;;;;;7.10;2.30;;;;;;;18.84;40.90;100810.98;105593;1264;59662;-61
2023/05/28 07:26:08;;;;;;;6.30;2.70;;;;;;;18.87;40.68;100809.60;105479;1264;59752;-65
2023/05/28 07:29:16;;;;;;;5.40;2.30;;;;;;;18.91;40.67;100805.23;105537;1270;63032;-61
2023/05/28 07:31:44;;;;;;;5.40;2.30;;;;;;;18.95;41.23;100801.76;105325;1267;61893;-60
2023/05/28 07:34:12;;;;;;;6.10;2.00;;;;;;;19.00;40.91;100793.55;105432;1267;64169;-62
2023/05/28 07:36:41;;;;;;;5.50;1.90;;;;;;;19.05;40.63;100789.42;105064;1266;59586;-66
2023/05/28 07:39:10;;;;;;;5.60;2.30;;;;;;;19.10;41.02;100789.73;104659;1270;59689;-57
2023/05/28 07:41:38;;;;;;;8.10;1.90;;;;;;;19.17;41.05;100787.09;108312;1266;64053;-68
2023/05/28 07:44:18;;;;;;;8.60;1.90;;;;;;;19.24;40.80;100787.89;108230;1267;61382;-59
2023/05/28 07:46:46;;;;;;;7.00;1.70;;;;;;;19.31;41.10;100788.56;108311;1264;63830;-61
2023/05/28 07:49:33;;;;;;;12.30;2.30;;;;;;;19.40;41.12;100787.95;108543;1262;58136;-58
2023/05/28 07:52:01;;;;;;;6.60;1.90;;;;;;;19.47;40.45;100785.16;106618;1266;59882;-58
2023/05/28 07:54:31;;;;;;;9.00;2.00;;;;;;;19.52;40.49;100786.74;104074;1264;62867;-60
2023/05/28 07:57:00;;;;;;;7.60;2.50;;;;;;;19.58;40.28;100784.55;104610;1267;61425;-63
2023/05/28 07:59:36;;;;;;;5.00;2.10;;;;;;;19.63;39.96;100778.80;105658;1267;62623;-58
2023/05/28 08:02:04;;;;;;;6.20;1.70;;;;;;;19.68;39.51;100778.05;108405;1260;59413;-61
2023/05/28 08:04:32;;;;;;;6.50;2.40;;;;;;;19.72;39.25;100777.20;105313;1264;60328;-59
2023/05/28 08:07:00;;;;;;;5.50;2.40;;;;;;;19.75;39.37;100779.44;104961;1257;66178;-61
2023/05/28 08:09:28;;;;;;;6.40;2.20;;;;;;;19.74;39.12;100780.73;106143;1263;61370;-62
2023/05/28 08:11:57;;;;;;;6.90;2.00;;;;;;;19.71;39.31;100782.65;108736;1257;71904;-61
2023/05/28 08:14:26;;;;;;;5.80;2.20;;;;;;;19.73;39.38;100784.85;108684;1257;57496;-64
2023/05/28 08:16:55;;;;;;;6.50;2.20;;;;;;;19.78;39.85;100780.48;106436;1263;59596;-59
2023/05/28 08:19:38;;;;;;;5.30;2.20;;;;;;;19.87;39.56;100774.89;106074;1257;64063;-60
2023/05/28 08:22:15;;;;;;;6.30;1.90;;;;;;;19.94;39.67;100772.46;106010;1258;61348;-65
2023/05/28 08:24:43;;;;;;;5.80;2.10;;;;;;;19.99;38.95;100772.56;105035;1258;62597;-57
2023/05/28 08:27:11;;;;;;;9.10;2.40;;;;;;;20.04;39.10;100773.48;106046;1257;59782;-59
2023/05/28 08:29:39;;;;;;;7.10;2.00;;;;;;;20.07;38.83;100770.48;105659;1257;59403;-58
2023/05/28 08:32:07;;;;;;;6.80;2.50;;;;;;;20.09;38.15;100769.38;104640;1258;64797;-59
2023/05/28 08:34:39;;;;;;;7.60;1.90;;;;;;;20.10;38.08;100768.17;108722;1257;61513;-60
2023/05/28 08:37:07;;;;;;;5.70;2.10;;;;;;;20.12;38.24;100769.84;106862;1258;64233;-58
2023/05/28 08:40:01;;;;;;;10.40;2.60;;;;;;;20.16;38.59;100771.64;104504;1259;61068;-58
2023/05/28 08:42:28;;;;;;;7.90;1.90;;;;;;;20.20;38.18;100774.35;104582;1258;60739;-58
2023/05/28 08:44:56;;;;;;;7.30;2.00;;;;;;;20.26;38.63;100773.81;104746;1257;64150;-58
2023/05/28 08:47:34;;;;;;;6.50;1.90;;;;;;;20.32;37.59;100773.02;104996;1257;61316;-61
2023/05/28 08:50:59;;;;;;;6.40;2.00;;;;;;;20.35;37.65;100772.08;104618;1269;62654;-59
2023/05/28 08:55:03;;;;;;;5.80;2.30;;;;;;;20.40;38.15;100767.27;104347;1264;59649;-60
2023/05/28 08:57:43;;;;;;;6.60;2.20;;;;;;;20.42;36.13;100769.34;105657;1264;59669;-59
2023/05/28 09:00:23;;;;;;;7.50;2.10;;;;;;;20.42;36.47;100768.27;106488;1276;64250;-61
2023/05/28 09:03:45;;;;;;;9.80;2.60;;;;;;;20.45;37.08;100772.86;104297;1275;63054;-61
2023/05/28 09:06:37;;;;;;;7.20;2.00;;;;;;;20.50;37.07;100770.47;104008;1277;63804;-60
2023/05/28 09:13:01;;;;;;;5.30;2.10;;;;;;;20.54;36.61;100772.92;105048;1272;58482;-59
2023/05/28 09:16:28;;;;;;;5.80;2.40;;;;;;;20.59;36.48;100776.45;103394;1283;64621;-62
2023/05/28 09:19:14;;;;;;;8.00;2.60;;;;;;;20.65;35.65;100773.59;107719;1270;60124;-63
2023/05/28 09:22:01;;;;;;;6.70;2.30;;;;;;;20.70;35.86;100774.80;105785;1271;64508;-63
2023/05/28 09:24:33;;;;;;;7.00;2.00;;;;;;;20.76;35.97;100771.84;104967;1270;59731;-61
2023/05/28 09:27:21;;;;;;;6.00;2.10;;;;;;;20.79;34.68;100770.34;105024;1264;59665;-62
2023/05/28 09:29:51;;;;;;;5.30;2.00;;;;;;;20.83;34.69;100768.87;105283;1270;64160;-62
2023/05/28 09:32:22;;;;;;;7.60;1.80;;;;;;;20.89;35.43;100766.57;105145;1265;61320;-60
2023/05/28 09:35:14;;;;;;;6.00;2.10;;;;;;;20.97;35.04;100766.02;105502;1271;63742;-60
2023/05/28 09:37:42;;;;;;;7.80;2.10;;;;;;;21.01;35.02;100761.95;105621;1257;59913;-62
2023/05/28 09:40:09;;;;;;;5.80;2.20;;;;;;;21.02;33.93;100764.30;106022;1263;59625;-59
2023/05/28 09:42:44;;;;;;;5.60;2.70;;;;;;;21.00;32.98;100761.73;105626;1257;62894;-60
2023/05/28 09:45:11;;;;;;;6.10;2.20;;;;;;;20.97;32.31;100757.91;105476;1263;61987;-61
2023/05/28 09:47:43;;;;;;;6.20;2.10;;;;;;;20.98;32.87;100762.98;105942;1259;66335;-59
2023/05/28 09:50:11;;;;;;;6.90;2.20;;;;;;;20.97;32.93;100759.15;108770;1262;58339;-61
2023/05/28 09:52:41;;;;;;;6.80;2.10;;;;;;;20.97;33.32;100765.59;108530;1257;58576;-60
2023/05/28 09:55:09;;;;;;;11.30;2.30;;;;;;;21.01;34.25;100762.49;106073;1257;62905;-59
2023/05/28 09:57:36;;;;;;;5.30;1.90;;;;;;;21.09;33.97;100764.34;105936;1257;61979;-59
2023/05/28 10:00:13;;;;;;;4.90;2.10;;;;;;;21.18;33.03;100763.52;105636;1258;64225;-63
2023/05/28 10:03:16;;;;;;;7.30;2.10;;;;;;;21.26;33.26;100761.98;106091;1257;59955;-62
2023/05/28 10:05:44;;;;;;;6.40;1.70;;;;;;;21.34;32.76;100756.35;106063;1257;59809;-60
2023/05/28 10:08:14;;;;;;;6.80;2.30;;;;;;;21.37;32.88;100759.23;106082;1259;64657;-61
2023/05/28 10:10:42;;;;;;;8.10;1.80;;;;;;;21.39;32.56;100763.49;107250;1260;60261;-60
2023/05/28 10:14:03;;;;;;;5.40;1.90;;;;;;;21.42;32.11;100766.74;105476;1264;67144;-59
2023/05/28 10:17:11;;;;;;;6.30;2.30;;;;;;;21.44;31.40;100766.20;104375;1263;60888;-59
2023/05/28 10:19:40;;;;;;;4.90;1.90;;;;;;;21.49;31.70;100768.15;104426;1264;59702;-62
2023/05/28 10:22:07;;;;;;;7.30;2.30;;;;;;;21.53;31.81;100765.21;105273;1264;64095;-56
2023/05/28 10:24:35;;;;;;;6.20;2.10;;;;;;;21.57;31.58;100763.15;105298;1265;60419;-65
2023/05/28 10:27:06;;;;;;;7.20;1.80;;;;;;;21.61;32.32;100760.11;105338;1270;63749;-62
2023/05/28 10:29:41;;;;;;;6.60;1.90;;;;;;;21.64;32.49;100759.23;105610;1267;59872;-61
2023/05/28 10:32:26;;;;;;;4.80;1.60;;;;;;;21.73;32.38;100757.05;105763;1257;59698;-61
2023/05/28 10:35:12;;;;;;;6.30;2.50;;;;;;;21.79;32.73;100750.13;105846;1257;62862;-60
2023/05/28 10:37:46;;;;;;;4.10;1.50;;;;;;;21.84;32.83;100747.83;105429;1257;62627;-62
2023/05/28 10:40:23;;;;;;;4.50;1.60;;;;;;;21.88;32.88;100746.67;105943;1260;62494;-60
2023/05/28 10:42:51;;;;;;;6.00;2.20;;;;;;;21.93;32.66;100745.33;105979;1257;59551;-59
2023/05/28 10:45:19;;;;;;;6.00;1.90;;;;;;;21.95;31.82;100744.94;106146;1257;59625;-62
2023/05/28 10:47:53;;;;;;;6.00;1.90;;;;;;;21.99;31.99;100741.21;106053;1256;62819;-61
2023/05/28 10:50:20;;;;;;;5.60;1.70;;;;;;;22.06;31.45;100743.05;105843;1264;60238;-61
2023/05/28 10:53:05;;;;;;;7.00;1.90;;;;;;;22.10;31.42;100744.48;105586;1267;63793;-59
2023/05/28 10:55:48;;;;;;;6.30;1.90;;;;;;;22.14;32.16;100746.39;107164;1266;59845;-58
2023/05/28 10:58:32;;;;;;;5.00;1.70;;;;;;;22.18;32.70;100745.52;105798;1261;59531;-61
2023/05/28 11:01:12;;;;;;;9.50;2.00;;;;;;;22.24;32.48;100745.13;105841;1264;64975;-62
2023/05/28 11:03:44;;;;;;;4.90;1.60;;;;;;;22.31;32.25;100749.46;105790;1266;61058;-64
2023/05/28 11:06:13;;;;;;;3.90;1.40;;;;;;;22.35;33.00;100748.48;105794;1261;63696;-65
2023/05/28 11:08:44;;;;;;;4.90;1.80;;;;;;;22.45;32.60;100747.67;105673;1257;60471;-63
2023/05/28 11:11:13;;;;;;;10.80;1.90;;;;;;;22.54;32.74;100750.03;105859;1263;60353;-62
2023/05/28 11:17:20;;;;;;;4.30;1.80;;;;;;;22.65;31.47;100746.16;105688;1266;61403;-63
2023/05/28 11:20:05;;;;;;;5.20;1.90;;;;;;;22.69;31.52;100741.62;105612;1267;62534;-62
2023/05/28 11:22:39;;;;;;;5.30;1.80;;;;;;;22.78;32.09;100751.66;104899;1267;62219;-60
2023/05/28 11:25:08;;;;;;;4.90;2.00;;;;;;;22.85;31.17;100754.98;105666;1260;60601;-63
2023/05/28 11:27:37;;;;;;;4.10;1.70;;;;;;;22.92;30.18;100749.09;106025;1265;65452;-60
2023/05/28 11:30:09;;;;;;;4.60;1.70;;;;;;;22.97;30.31;100743.84;105649;1262;60588;-60
2023/05/28 11:32:37;;;;;;;6.70;2.40;;;;;;;23.07;31.12;100743.15;105696;1263;64299;-60
2023/05/28 11:35:05;;;;;;;5.70;1.90;;;;;;;23.21;30.79;100746.96;105682;1263;60562;-61
2023/05/28 11:38:24;;;;;;;4.80;2.00;;;;;;;23.28;30.31;100744.98;105630;1264;61623;-60
2023/05/28 11:41:01;;;;;;;4.70;1.90;;;;;;;23.31;30.61;100747.48;105725;1260;67862;-60
2023/05/28 11:43:28;;;;;;;3.70;1.40;;;;;;;23.27;29.89;100746.34;105586;1262;61496;-61
2023/05/28 11:45:59;;;;;;;5.70;1.90;;;;;;;23.24;29.68;100746.36;105642;1265;62516;-60
2023/05/28 11:48:36;;;;;;;7.10;1.70;;;;;;;23.34;29.36;100746.47;105700;1266;60456;-61
2023/05/28 11:51:03;;;;;;;11.20;2.40;;;;;;;23.54;30.22;100741.96;105782;1260;60649;-61
2023/05/28 11:53:43;;;;;;;5.30;1.90;;;;;;;23.72;29.90;100746.10;105495;1261;63676;-61
2023/05/28 11:56:11;;;;;;;10.00;2.00;;;;;;;23.78;28.78;100746.53;105768;1261;62139;-62
2023/05/28 11:58:43;;;;;;;4.30;1.70;;;;;;;23.75;29.05;100743.88;105728;1265;63729;-62
2023/05/28 12:01:15;;;;;;;5.50;2.00;;;;;;;23.71;28.64;100741.52;106146;1264;60282;-61